Haverstraw, New York
Current Conditions -  °F | °C
As of 12:56 AM on Tuesday 21 Oct 2014 (Local Time) from KHPN Reporting Station
Few Clouds Few Clouds  
Wind Chill: 54°   Ceiling: Unl
Heat Index: 54°   Visibility: 10mi
Dew Point: 43°   Wind: 3mph
Humidity: 66%   Direction: NA
Pressure: 29.96"   Gusts: NA
Location:  41.2°N, 73.96°W
Report Text: KHPN 210456Z VRB03KT 10SM FEW047 12/06 A2996 RMK AO2 SLP146 T01220061 401390011
Loading
Personal Weather Stations






























Interactive Weather Map
Tropical Storm Tracking
New forecast layout! Learn more

10-Day Weather Forecast

Advertisements
Track Severe Weather on mobile